気象予報士の航空気象 欧州飛行再開。

*All archives   *Admin

スポンサーサイト

上記の広告は1ヶ月以上更新のないブログに表示されています。
新しい記事を書く事で広告が消せます。
--:--  |  スポンサー広告  |  EDIT  |  Top↑

2010.04.22 (Thu)

欧州飛行再開。

RJTT 220600Z 36016KT 7000 -RA FEW006 BKN010 BKN015 08/06 Q1011 RMK 1ST006 5SC010 7SC015 A2986 P/FR


さむい。


昨日は、あんなに暖かかったのに。


欧州火山灰動向予報 ← クリック



さて、欧州方面がほぼ再開されました。


日系の航空会社は無事に再開しているようです。


今後、しばらく臨時便もでるでしょう。


火山灰が飛行機に影響することは、報道でされてますが、復習したいと思います。


興味のある方は、下記をクリック。

過去の火山に関するブログ
浅間山噴火 火山灰と飛行機
浅間山噴火 火山灰と飛行機 その2






 
ブログランキングに参加しています。
にほんブログ村 環境ブログ 天気・気象学へ
にほんブログ村
応援クリックをおねがします。


以下、アフィリエイトサイトです。




スポンサーサイト
20:43  |  時事  |  TB(0)  |  CM(0)  |  EDIT  |  Top↑

コメントを投稿する


 管理者だけに表示  (非公開コメント投稿可能)

▲PageTop

この記事のトラックバックURL

→http://weathereucalyptus.blog115.fc2.com/tb.php/462-80c012ac
この記事にトラックバックする(FC2ブログユーザー)

この記事へのトラックバック

▲PageTop

 | BLOGTOP | 
上記広告は1ヶ月以上更新のないブログに表示されています。新しい記事を書くことで広告を消せます。